Time;durP1;ratioP1;P1;durP2;ratioP2;P2;SDS_P1;SDS_P2;PMS_P1;PMS_P2;Temp;Humidity;BMP_temperature;BMP_pressure;BME280_temperature;BME280_humidity;BME280_pressure;Samples;Min_cycle;Max_cycle;Signal;HPM_P1;HPM_P2
2022/05/01 00:01:11;;;;;;;15.05;9.70;;;;;;;8.70;77.26;102445.19;5033284;28;20051;-68
2022/05/01 00:03:36;;;;;;;23.10;11.50;;;;;;;8.52;77.85;102456.34;5034059;28;20114;-68
2022/05/01 00:06:09;;;;;;;17.90;10.25;;;;;;;8.51;78.03;102451.97;5033484;28;20048;-68
2022/05/01 00:08:39;;;;;;;24.42;11.40;;;;;;;8.62;78.03;102444.53;5034251;28;20036;-68
2022/05/01 00:11:05;;;;;;;20.83;10.43;;;;;;;8.69;77.53;102442.59;5033172;28;20029;-68
2022/05/01 00:13:32;;;;;;;21.60;10.18;;;;;;;8.60;78.49;102442.84;5032585;28;20029;-67
2022/05/01 00:15:57;;;;;;;20.58;10.43;;;;;;;8.57;78.11;102439.34;5033141;28;20536;-67
2022/05/01 00:18:23;;;;;;;23.83;11.63;;;;;;;8.47;78.79;102434.34;5033634;28;20099;-69
2022/05/01 00:20:49;;;;;;;20.40;11.02;;;;;;;8.36;78.67;102439.97;5032208;28;20091;-67
2022/05/01 00:23:14;;;;;;;22.70;10.70;;;;;;;8.41;78.49;102432.75;5032170;28;20037;-69
2022/05/01 00:25:42;;;;;;;20.67;10.07;;;;;;;8.37;78.63;102428.44;5014711;28;20052;-67
2022/05/01 00:28:11;;;;;;;20.08;11.43;;;;;;;8.52;78.23;102427.13;5032401;28;20040;-69
2022/05/01 00:30:38;;;;;;;20.17;10.75;;;;;;;8.56;78.03;102431.44;5014233;28;20049;-67
2022/05/01 00:38:33;;;;;;;20.83;9.88;;;;;;;8.53;78.53;102429.75;5031108;28;20937;-67
2022/05/01 00:40:59;;;;;;;18.92;10.65;;;;;;;8.47;78.27;102434.34;5033044;28;20137;-67
2022/05/01 00:43:25;;;;;;;21.48;9.60;;;;;;;8.34;78.74;102435.59;5032320;28;20119;-67
2022/05/01 00:45:50;;;;;;;20.42;10.93;;;;;;;8.44;78.53;102435.31;5032057;28;20045;-67
2022/05/01 00:48:16;;;;;;;22.02;11.40;;;;;;;8.52;78.14;102432.44;5030458;28;20045;-67
2022/05/01 00:50:43;;;;;;;15.80;9.77;;;;;;;8.54;78.50;102431.50;5032944;28;20116;-69
2022/05/01 00:53:09;;;;;;;20.70;10.40;;;;;;;8.53;78.13;102427.09;5031952;28;20031;-68
2022/05/01 00:55:36;;;;;;;25.27;11.57;;;;;;;8.44;79.71;102430.00;5033416;28;20053;-68
2022/05/01 00:58:04;;;;;;;17.30;10.07;;;;;;;8.44;79.53;102418.50;5032764;28;20053;-68
2022/05/01 01:00:30;;;;;;;21.40;10.73;;;;;;;8.41;79.12;102416.78;5033760;28;20083;-67
2022/05/01 01:02:55;;;;;;;16.50;10.15;;;;;;;8.29;79.51;102420.66;5034022;28;20033;-68
2022/05/01 01:05:21;;;;;;;20.85;10.43;;;;;;;8.34;78.91;102415.22;5034055;28;20712;-68
2022/05/01 01:07:46;;;;;;;23.65;12.45;;;;;;;8.40;78.67;102411.53;5034739;28;20041;-68
2022/05/01 01:10:12;;;;;;;19.48;11.48;;;;;;;8.35;78.76;102419.59;5034695;28;20542;-68
2022/05/01 01:12:56;;;;;;;15.57;9.50;;;;;;;8.38;78.79;102416.88;5034887;28;20024;-67
2022/05/01 01:15:23;;;;;;;17.10;9.40;;;;;;;8.44;78.93;102414.06;5015982;28;20836;-67
2022/05/01 01:17:54;;;;;;;20.63;11.38;;;;;;;8.43;79.07;102419.41;5035553;28;20067;-67
2022/05/01 01:20:21;;;;;;;20.70;10.32;;;;;;;8.47;78.34;102423.72;5034068;28;20474;-67
2022/05/01 01:22:48;;;;;;;20.15;10.57;;;;;;;8.35;78.56;102419.59;5034531;28;20033;-67
2022/05/01 01:25:17;;;;;;;20.42;11.38;;;;;;;8.45;78.38;102422.91;5038136;28;20044;-67
2022/05/01 01:27:42;;;;;;;20.73;11.25;;;;;;;8.53;78.05;102416.47;5038755;28;20047;-68
2022/05/01 01:32:53;;;;;;;19.38;10.80;;;;;;;8.60;77.39;102421.59;5038225;28;20139;-67
2022/05/01 01:35:22;;;;;;;19.40;10.88;;;;;;;8.52;78.91;102421.78;5037140;28;20041;-67
2022/05/01 01:37:49;;;;;;;21.50;11.77;;;;;;;8.52;78.47;102422.66;5038261;28;20132;-67
2022/05/01 01:40:24;;;;;;;24.77;12.80;;;;;;;8.45;78.70;102417.59;5035947;28;20133;-67
2022/05/01 01:42:50;;;;;;;18.58;11.13;;;;;;;8.35;80.10;102418.75;5036743;28;20095;-67
2022/05/01 01:45:16;;;;;;;23.50;11.65;;;;;;;8.25;80.17;102418.13;5034616;28;20708;-68
2022/05/01 01:47:49;;;;;;;20.00;10.65;;;;;;;8.16;80.55;102424.56;5035227;28;20533;-67
2022/05/01 01:50:15;;;;;;;;;;;;;;;8.18;79.95;102417.44;5035893;28;20043;-67
2022/05/01 01:52:46;;;;;;;20.13;11.32;;;;;;;8.35;79.22;102416.94;5034779;28;19924;-67
2022/05/01 01:55:15;;;;;;;19.38;11.02;;;;;;;8.28;79.86;102416.25;5036023;28;20040;-69
2022/05/01 01:57:41;;;;;;;24.88;11.68;;;;;;;8.42;78.46;102415.00;5036034;28;20150;-67
2022/05/01 02:00:07;;;;;;;19.95;11.50;;;;;;;8.32;79.75;102414.38;5035915;28;20032;-67
2022/05/01 02:02:39;;;;;;;24.33;11.87;;;;;;;8.33;80.09;102410.78;5035834;28;20560;-67
2022/05/01 02:05:05;;;;;;;22.55;10.77;;;;;;;8.41;79.36;102407.94;5035552;28;20037;-67
2022/05/01 02:07:31;;;;;;;21.75;12.18;;;;;;;8.20;80.17;102410.28;5035967;28;20048;-67
2022/05/01 02:09:57;;;;;;;23.30;11.95;;;;;;;8.10;81.05;102408.78;5024997;28;20053;-67
2022/05/01 02:12:23;;;;;;;21.08;11.48;;;;;;;8.12;81.24;102414.94;5035177;28;20045;-67
2022/05/01 02:14:48;;;;;;;18.90;11.20;;;;;;;8.04;81.53;102408.97;5035832;28;20378;-67
2022/05/01 02:17:13;;;;;;;20.17;11.73;;;;;;;8.18;79.70;102404.16;5034091;28;20076;-67
2022/05/01 02:19:39;;;;;;;24.48;12.30;;;;;;;8.20;80.60;102401.44;5034497;28;20040;-67
2022/05/01 02:22:04;;;;;;;19.38;11.32;;;;;;;8.22;80.31;102405.78;5033562;28;20049;-67
2022/05/01 02:24:31;;;;;;;23.02;11.65;;;;;;;8.18;80.33;102403.25;5016851;28;20041;-67
2022/05/01 02:26:56;;;;;;;24.40;11.65;;;;;;;8.16;80.53;102400.66;5034142;28;20839;-67
2022/05/01 02:29:22;;;;;;;22.63;11.50;;;;;;;8.29;79.88;102398.53;5035254;28;20107;-67
2022/05/01 02:31:53;;;;;;;24.80;12.45;;;;;;;8.32;79.79;102396.63;5034269;28;20043;-67
2022/05/01 02:34:20;;;;;;;23.45;12.45;;;;;;;8.28;80.15;102402.97;5034608;28;20041;-67
2022/05/01 02:36:46;;;;;;;22.45;12.75;;;;;;;7.95;81.10;102406.56;5016670;28;20033;-66
2022/05/01 02:39:11;;;;;;;22.75;11.85;;;;;;;7.99;80.85;102406.44;5034613;28;20044;-67
2022/05/01 02:41:37;;;;;;;20.38;11.32;;;;;;;8.02;81.32;102392.19;5016177;28;20152;-67
2022/05/01 02:44:03;;;;;;;20.33;11.30;;;;;;;7.81;81.45;102393.66;5014813;28;20734;-67
2022/05/01 02:46:29;;;;;;;24.58;12.63;;;;;;;7.86;82.22;102398.84;5015241;28;20037;-67
2022/05/01 02:48:54;;;;;;;23.75;11.80;;;;;;;7.90;81.84;102404.03;5015438;28;20777;-67
2022/05/01 02:51:20;;;;;;;21.77;11.43;;;;;;;7.89;81.89;102404.09;5014805;28;20049;-67
2022/05/01 02:53:46;;;;;;;24.88;12.90;;;;;;;7.96;81.44;102395.03;5014984;28;20775;-67
2022/05/01 02:56:12;;;;;;;24.48;12.35;;;;;;;8.03;81.37;102394.81;5013443;28;20072;-67
2022/05/01 02:58:37;;;;;;;19.02;11.13;;;;;;;7.83;82.50;102390.94;5015364;28;20155;-67
2022/05/01 03:01:03;;;;;;;18.23;10.98;;;;;;;7.82;82.36;102400.69;5014878;28;20049;-67
2022/05/01 03:03:28;;;;;;;21.25;12.02;;;;;;;7.77;81.96;102392.84;5014563;28;20041;-67
2022/05/01 03:05:55;;;;;;;24.90;12.88;;;;;;;7.83;82.28;102389.19;5014087;28;20050;-67
2022/05/01 03:08:21;;;;;;;21.70;11.52;;;;;;;7.86;82.01;102391.75;5014432;28;20388;-67
2022/05/01 03:10:47;;;;;;;27.45;12.98;;;;;;;7.87;81.71;102390.81;5014532;28;20065;-67
2022/05/01 03:13:13;;;;;;;21.65;12.43;;;;;;;7.89;81.50;102383.69;5014126;28;20183;-67
2022/05/01 03:15:39;;;;;;;24.90;12.55;;;;;;;7.98;80.92;102382.56;5014292;28;20049;-66
2022/05/01 03:23:34;;;;;;;18.17;10.90;;;;;;;7.87;82.34;102379.34;5034507;28;20059;-67
2022/05/01 03:25:59;;;;;;;22.02;12.02;;;;;;;7.85;82.04;102384.69;5032586;28;20537;-66
2022/05/01 03:28:25;;;;;;;24.63;13.15;;;;;;;7.81;82.27;102377.72;5034408;28;20126;-67
2022/05/01 03:30:52;;;;;;;21.30;12.05;;;;;;;7.81;82.31;102382.16;5034553;28;20036;-67
2022/05/01 03:33:21;;;;;;;18.23;10.98;;;;;;;7.58;82.79;102375.69;5033693;28;20118;-67
2022/05/01 03:35:48;;;;;;;21.02;11.77;;;;;;;7.62;83.34;102374.69;5034388;28;20069;-67
2022/05/01 03:38:15;;;;;;;19.85;11.10;;;;;;;7.55;83.33;102375.75;5033550;28;20059;-67
2022/05/01 03:40:41;;;;;;;21.50;13.20;;;;;;;7.39;83.93;102377.94;5035067;28;20112;-66
2022/05/01 03:43:06;;;;;;;23.02;12.05;;;;;;;7.31;84.72;102377.25;5033843;28;20774;-67
2022/05/01 03:45:32;;;;;;;27.25;13.57;;;;;;;7.42;84.55;102375.19;5032301;28;20025;-66
2022/05/01 03:47:57;;;;;;;27.08;14.18;;;;;;;7.39;84.21;102375.28;5033431;28;20099;-67
2022/05/01 03:50:22;;;;;;;26.13;13.85;;;;;;;7.52;84.02;102375.81;5032573;28;20040;-67
2022/05/01 03:52:48;;;;;;;22.70;13.07;;;;;;;7.67;83.39;102370.13;5032668;28;20040;-66
2022/05/01 03:55:13;;;;;;;26.40;13.25;;;;;;;7.62;83.19;102373.81;5033100;28;20714;-67
2022/05/01 03:57:40;;;;;;;25.75;13.07;;;;;;;7.59;83.26;102371.25;5033425;28;20029;-67
2022/05/01 04:00:06;;;;;;;25.48;12.98;;;;;;;7.62;83.33;102368.50;5033295;28;20866;-67
2022/05/01 04:02:42;;;;;;;26.55;13.30;;;;;;;7.60;83.69;102373.00;5033281;28;20876;-67
2022/05/01 04:05:09;;;;;;;28.08;12.90;;;;;;;7.55;83.34;102372.25;5034386;28;20047;-67
2022/05/01 04:07:35;;;;;;;26.67;13.45;;;;;;;7.60;82.98;102375.63;5015642;28;20040;-67
2022/05/01 04:10:00;;;;;;;22.95;12.77;;;;;;;7.64;83.46;102377.31;5033544;28;20047;-67
2022/05/01 04:12:26;;;;;;;23.90;12.85;;;;;;;7.48;83.95;102372.41;5034022;28;20042;-67
2022/05/01 04:14:51;;;;;;;31.35;14.57;;;;;;;7.53;84.12;102378.47;5033888;28;20745;-66
2022/05/01 04:17:16;;;;;;;23.00;12.93;;;;;;;7.69;83.49;102380.72;5033568;28;20131;-69
2022/05/01 04:19:42;;;;;;;22.02;13.60;;;;;;;7.52;84.02;102379.34;5035278;28;20753;-69
2022/05/01 04:22:07;;;;;;;22.35;12.18;;;;;;;7.54;83.89;102379.34;5033777;28;20056;-69
2022/05/01 04:24:33;;;;;;;25.08;13.68;;;;;;;7.46;84.64;102382.16;5034320;28;20052;-68
2022/05/01 04:26:58;;;;;;;22.83;13.57;;;;;;;7.50;83.85;102380.31;5034642;28;20029;-68
2022/05/01 04:29:40;;;;;;;25.17;12.85;;;;;;;7.47;84.36;102385.69;5034064;28;20029;-69
2022/05/01 04:32:06;;;;;;;26.40;13.63;;;;;;;7.40;84.43;102374.38;5022942;28;20824;-68
2022/05/01 04:34:32;;;;;;;25.40;13.18;;;;;;;7.53;83.26;102381.13;5034423;28;20047;-69
2022/05/01 04:36:58;;;;;;;26.13;13.25;;;;;;;7.53;84.11;102380.25;5034158;28;20037;-68
2022/05/01 04:39:25;;;;;;;23.70;14.00;;;;;;;7.57;83.75;102387.19;5034325;28;20450;-69
2022/05/01 04:41:50;;;;;;;22.08;12.82;;;;;;;7.68;84.26;102385.16;5034091;28;20128;-68
2022/05/01 04:44:16;;;;;;;23.95;13.05;;;;;;;7.78;83.53;102383.09;5033725;28;20097;-69
2022/05/01 04:46:41;;;;;;;24.55;13.60;;;;;;;7.60;83.96;102383.59;5034238;28;20540;-68
2022/05/01 04:49:06;;;;;;;27.05;13.70;;;;;;;7.74;83.54;102385.00;5033568;28;20886;-68
2022/05/01 04:51:32;;;;;;;25.02;13.75;;;;;;;7.72;83.62;102381.47;5033872;28;20438;-68
2022/05/01 04:53:57;;;;;;;23.77;12.80;;;;;;;7.84;83.21;102379.44;5034418;28;20045;-68
2022/05/01 04:59:07;;;;;;;27.25;11.98;;;;;;;7.96;82.57;102387.91;5035785;28;20045;-68
2022/05/01 05:01:35;;;;;;;25.23;14.07;;;;;;;8.03;81.64;102386.84;5036757;28;20048;-68
2022/05/01 05:04:00;;;;;;;25.45;13.05;;;;;;;8.01;81.91;102383.34;5036827;28;20118;-68
2022/05/01 05:06:26;;;;;;;21.40;12.10;;;;;;;8.15;81.44;102382.97;5035854;28;20033;-68
2022/05/01 05:11:35;;;;;;;23.15;12.85;;;;;;;7.96;82.61;102381.75;5036309;28;20110;-68
2022/05/01 05:14:01;;;;;;;24.00;12.40;;;;;;;7.89;83.30;102398.78;5036639;28;20044;-69
2022/05/01 05:16:29;;;;;;;23.08;12.82;;;;;;;7.99;82.72;102393.16;5037026;28;20037;-68
2022/05/01 05:18:54;;;;;;;24.42;12.30;;;;;;;8.03;81.95;102392.16;5019643;28;20037;-68
2022/05/01 05:21:20;;;;;;;21.25;12.30;;;;;;;8.26;80.79;102391.50;5036016;28;20790;-68
2022/05/01 05:23:45;;;;;;;21.63;10.98;;;;;;;8.29;80.90;102396.75;5037328;28;20151;-68
2022/05/01 05:26:11;;;;;;;22.75;12.30;;;;;;;8.27;81.94;102397.69;5037994;28;20067;-69
2022/05/01 05:28:36;;;;;;;23.50;11.48;;;;;;;8.37;81.34;102393.88;5037967;28;20941;-68
2022/05/01 05:31:03;;;;;;;21.77;11.98;;;;;;;8.27;81.70;102400.34;5037358;28;20049;-68
2022/05/01 05:33:28;;;;;;;27.95;12.50;;;;;;;8.12;81.33;102400.78;5037981;28;20055;-68
2022/05/01 05:35:54;;;;;;;25.50;12.02;;;;;;;8.20;81.58;102399.66;5038250;28;20037;-68
2022/05/01 05:38:19;;;;;;;23.13;11.45;;;;;;;8.20;80.81;102398.78;5038029;28;20032;-66
2022/05/01 05:40:45;;;;;;;20.00;11.57;;;;;;;8.16;81.07;102397.13;5020766;28;20041;-67
2022/05/01 05:43:10;;;;;;;21.45;12.18;;;;;;;8.18;81.74;102401.50;5038261;28;20067;-67
2022/05/01 05:45:36;;;;;;;23.77;12.25;;;;;;;8.21;81.20;102404.03;5039102;28;20198;-67
2022/05/01 05:48:02;;;;;;;19.33;11.30;;;;;;;8.38;81.12;102402.72;5038406;28;20064;-67
2022/05/01 05:50:28;;;;;;;20.83;11.85;;;;;;;8.56;80.15;102403.06;5019671;28;20109;-66
2022/05/01 05:52:53;;;;;;;20.40;12.55;;;;;;;8.50;80.19;102408.56;5040042;28;20033;-66
2022/05/01 05:55:19;;;;;;;20.90;12.13;;;;;;;8.60;79.54;102417.13;5019735;28;20534;-66
2022/05/01 05:57:45;;;;;;;26.70;12.63;;;;;;;8.57;79.35;102415.41;5039396;28;20029;-67
2022/05/01 06:00:11;;;;;;;19.75;11.10;;;;;;;8.54;79.78;102418.19;5038169;28;20037;-66
2022/05/01 06:02:39;;;;;;;21.90;11.82;;;;;;;8.65;79.87;102420.53;5020011;28;20662;-67
2022/05/01 06:05:05;;;;;;;19.95;11.10;;;;;;;8.73;79.51;102415.81;5019803;28;20048;-66
2022/05/01 06:07:31;;;;;;;28.10;11.90;;;;;;;8.61;78.74;102425.97;5037531;28;20477;-66
2022/05/01 06:09:56;;;;;;;21.15;11.38;;;;;;;8.68;79.08;102412.44;5036778;28;20138;-66
2022/05/01 06:12:22;;;;;;;20.95;11.40;;;;;;;8.78;79.58;102418.34;5038589;28;20037;-66
2022/05/01 06:14:47;;;;;;;19.65;11.80;;;;;;;8.82;79.28;102415.56;5037848;28;20612;-67
2022/05/01 06:17:13;;;;;;;23.70;11.85;;;;;;;8.98;78.74;102420.41;5036830;28;20048;-67
2022/05/01 06:19:39;;;;;;;20.25;11.57;;;;;;;9.16;77.67;102418.97;5036832;28;20037;-67
2022/05/01 06:22:05;;;;;;;22.13;11.60;;;;;;;8.90;78.75;102425.97;5018753;28;20041;-67
2022/05/01 06:24:30;;;;;;;20.10;10.88;;;;;;;9.03;78.53;102429.97;5036663;28;20048;-67
2022/05/01 06:26:57;;;;;;;18.88;11.43;;;;;;;9.08;79.11;102424.50;5036486;28;20047;-67
2022/05/01 06:29:22;;;;;;;21.15;11.98;;;;;;;8.92;77.45;102420.59;5036006;28;20134;-67
2022/05/01 06:31:48;;;;;;;19.17;11.43;;;;;;;8.92;78.85;102420.59;5036073;28;20041;-67
2022/05/01 06:34:15;;;;;;;18.92;10.98;;;;;;;8.89;78.36;102418.91;5035183;28;20784;-67
2022/05/01 06:36:41;;;;;;;21.05;12.25;;;;;;;8.97;78.03;102422.19;5036044;28;20064;-67
2022/05/01 06:39:09;;;;;;;21.98;11.32;;;;;;;9.18;78.05;102422.44;5035449;28;20033;-67
2022/05/01 06:41:34;;;;;;;23.80;11.82;;;;;;;9.36;76.46;102431.63;5036184;28;20048;-67
2022/05/01 06:44:00;;;;;;;24.25;12.05;;;;;;;9.33;77.33;102420.13;5035572;28;20037;-67
2022/05/01 06:46:25;;;;;;;20.15;11.55;;;;;;;9.72;76.89;102430.38;5034606;28;20581;-67
2022/05/01 06:48:50;;;;;;;19.35;11.80;;;;;;;9.57;76.05;102430.91;5036130;28;20033;-67
2022/05/01 06:51:16;;;;;;;21.05;11.52;;;;;;;9.56;76.12;102432.69;5035691;28;20839;-67
2022/05/01 06:53:41;;;;;;;20.30;11.75;;;;;;;9.59;75.65;102429.94;5036129;28;20052;-67
2022/05/01 06:56:07;;;;;;;18.15;11.45;;;;;;;9.65;75.25;102428.00;5035452;28;20512;-67
2022/05/01 06:58:33;;;;;;;24.85;11.18;;;;;;;10.09;74.79;102429.06;5017819;28;20090;-67
2022/05/01 07:00:59;;;;;;;22.00;11.07;;;;;;;10.08;73.99;102433.53;5034965;28;20048;-68
2022/05/01 07:03:24;;;;;;;19.02;11.18;;;;;;;10.17;72.81;102431.50;5016914;28;20163;-67
2022/05/01 07:05:50;;;;;;;18.88;10.85;;;;;;;10.73;71.03;102426.72;5017547;28;20045;-67
2022/05/01 07:08:15;;;;;;;19.25;10.57;;;;;;;10.46;72.79;102420.66;5032873;28;20071;-67
2022/05/01 07:10:41;;;;;;;24.40;12.35;;;;;;;10.60;72.02;102426.34;5016864;28;20071;-67
2022/05/01 07:13:06;;;;;;;21.05;11.25;;;;;;;10.86;70.46;102424.47;5033939;28;20040;-67
2022/05/01 07:15:32;;;;;;;19.13;10.80;;;;;;;11.04;72.31;102422.84;5015976;28;20795;-67
2022/05/01 07:17:57;;;;;;;24.55;12.15;;;;;;;11.39;70.49;102426.75;5021357;28;20033;-66
2022/05/01 07:20:23;;;;;;;23.08;12.57;;;;;;;11.60;68.15;102423.22;5025374;28;20037;-69
2022/05/01 07:22:48;;;;;;;20.35;11.27;;;;;;;11.64;68.24;102424.78;5021029;28;20037;-67
2022/05/01 07:25:13;;;;;;;19.05;10.57;;;;;;;11.65;67.07;102423.88;4995813;28;20045;-66
2022/05/01 07:27:39;;;;;;;16.00;10.15;;;;;;;12.05;66.94;102422.19;5006138;28;20037;-66
2022/05/01 07:30:05;;;;;;;20.38;11.00;;;;;;;11.90;67.05;102417.53;5018347;28;20041;-67
2022/05/01 07:32:30;;;;;;;21.40;11.90;;;;;;;12.16;66.77;102419.91;5017223;28;20061;-69
2022/05/01 07:34:56;;;;;;;19.92;11.18;;;;;;;12.13;67.48;102428.06;5020775;28;20386;-66
2022/05/01 07:37:24;;;;;;;20.92;11.05;;;;;;;12.63;64.73;102411.50;5017188;28;20047;-67
2022/05/01 07:39:50;;;;;;;16.27;10.15;;;;;;;11.87;66.31;102423.84;5021655;28;20048;-68
2022/05/01 07:42:15;;;;;;;18.05;10.95;;;;;;;11.83;65.48;102424.06;5014935;28;20669;-67
2022/05/01 07:44:41;;;;;;;16.92;9.95;;;;;;;11.52;67.20;102422.66;5016274;28;20053;-67
2022/05/01 07:47:06;;;;;;;20.67;11.27;;;;;;;11.80;67.39;102427.72;5002556;28;20042;-67
2022/05/01 07:49:32;;;;;;;17.88;11.10;;;;;;;11.96;65.22;102430.63;5020119;28;20052;-68
2022/05/01 07:51:57;;;;;;;18.90;11.27;;;;;;;12.05;65.73;102429.31;5014182;28;20040;-68
2022/05/01 07:54:23;;;;;;;16.65;9.93;;;;;;;12.20;66.27;102428.66;5002077;28;20032;-67
2022/05/01 07:56:48;;;;;;;18.08;11.75;;;;;;;12.32;66.24;102425.44;5010672;28;20772;-67
2022/05/01 07:59:14;;;;;;;23.58;12.02;;;;;;;12.21;65.40;102422.38;5017797;28;20033;-69
2022/05/01 08:01:40;;;;;;;15.85;10.30;;;;;;;12.28;64.95;102425.63;5013947;28;20072;-68
2022/05/01 08:06:50;;;;;;;23.02;12.57;;;;;;;12.88;63.62;102421.06;5005790;28;20167;-68
2022/05/01 08:09:15;;;;;;;15.52;9.85;;;;;;;12.13;64.82;102430.72;5018565;28;20755;-68
2022/05/01 08:11:40;;;;;;;17.80;10.77;;;;;;;12.56;63.90;102422.59;5012547;28;20884;-68
2022/05/01 08:14:08;;;;;;;20.58;11.38;;;;;;;12.39;63.67;102423.34;5020868;28;20029;-68
2022/05/01 08:16:34;;;;;;;18.27;10.27;;;;;;;13.29;61.00;102420.88;5014190;28;20056;-68
2022/05/01 08:21:43;;;;;;;17.65;10.18;;;;;;;13.39;60.33;102424.84;5027199;28;20865;-69
2022/05/01 08:24:09;;;;;;;18.15;11.10;;;;;;;13.25;59.36;102419.28;5011572;28;20044;-69
2022/05/01 08:26:35;;;;;;;23.98;11.25;;;;;;;13.70;60.52;102424.16;5011385;28;20037;-68
2022/05/01 08:29:00;;;;;;;15.13;9.93;;;;;;;13.64;59.98;102419.13;5022521;28;20034;-68
2022/05/01 08:31:27;;;;;;;19.45;10.50;;;;;;;13.14;60.47;102426.00;5017714;28;20691;-68
2022/05/01 08:33:54;;;;;;;23.10;11.18;;;;;;;13.25;62.28;102424.66;5031323;28;20070;-68
2022/05/01 08:36:20;;;;;;;22.35;11.48;;;;;;;14.11;60.54;102422.03;5035362;28;20045;-68
2022/05/01 08:38:45;;;;;;;17.60;10.98;;;;;;;13.97;60.39;102424.56;5015424;28;20057;-68
2022/05/01 08:41:11;;;;;;;17.60;10.55;;;;;;;13.59;59.89;102427.38;5015648;28;20033;-68
2022/05/01 08:43:37;;;;;;;20.70;11.07;;;;;;;14.27;60.04;102426.56;5005268;28;20045;-68
2022/05/01 08:46:21;;;;;;;17.88;10.23;;;;;;;14.32;60.86;102417.31;5009638;28;20616;-68
2022/05/01 08:48:55;;;;;;;19.58;10.68;;;;;;;15.10;55.70;102417.50;5014326;28;20045;-68
2022/05/01 08:51:21;;;;;;;14.30;9.68;;;;;;;14.85;55.51;102407.28;5003344;28;20052;-68
2022/05/01 08:53:47;;;;;;;18.30;9.95;;;;;;;15.25;53.86;102414.81;5031156;28;20037;-68
2022/05/01 08:56:15;;;;;;;22.42;10.68;;;;;;;15.21;53.88;102415.97;5034175;28;20370;-68
2022/05/01 08:58:41;;;;;;;16.55;10.88;;;;;;;15.08;55.07;102412.22;5030229;28;20095;-68
2022/05/01 09:01:08;;;;;;;22.83;11.35;;;;;;;14.97;55.92;102412.84;5029729;28;20044;-68
2022/05/01 09:03:34;;;;;;;13.73;9.38;;;;;;;14.98;56.24;102409.19;5023207;28;20056;-68
2022/05/01 09:06:00;;;;;;;16.20;10.50;;;;;;;15.27;54.63;102414.72;5003364;28;20037;-67
2022/05/01 09:08:26;;;;;;;17.52;9.98;;;;;;;15.44;54.79;102408.38;5029918;28;20060;-68
2022/05/01 09:10:52;;;;;;;14.50;9.35;;;;;;;14.61;55.65;102407.72;5034136;28;20033;-68
2022/05/01 09:13:25;;;;;;;17.27;9.73;;;;;;;15.53;51.54;102406.00;5027297;28;20922;-68
2022/05/01 09:15:51;;;;;;;15.93;10.57;;;;;;;15.09;56.34;102407.72;5020247;28;20057;-68
2022/05/01 09:18:19;;;;;;;16.23;9.00;;;;;;;15.40;56.12;102407.66;5023450;28;20167;-68
2022/05/01 09:21:01;;;;;;;18.05;9.48;;;;;;;15.92;52.84;102403.75;5021789;28;20150;-68
2022/05/01 09:23:53;;;;;;;16.83;10.73;;;;;;;15.30;53.73;102403.78;4997280;28;20055;-68
2022/05/01 09:26:19;;;;;;;12.90;8.63;;;;;;;15.42;53.55;102404.91;5030191;28;20075;-67
2022/05/01 09:28:54;;;;;;;13.88;9.45;;;;;;;15.57;53.84;102405.84;5015745;28;20152;-67
2022/05/01 09:31:43;;;;;;;14.15;9.48;;;;;;;15.20;54.98;102399.91;5022500;28;20045;-67
2022/05/01 09:34:20;;;;;;;13.95;9.20;;;;;;;14.75;54.75;102404.25;5015806;28;20103;-66
2022/05/01 09:36:46;;;;;;;16.75;10.05;;;;;;;15.65;52.45;102398.19;5019591;28;20402;-66
2022/05/01 09:39:16;;;;;;;13.57;9.30;;;;;;;15.51;52.84;102404.34;5024020;28;20056;-67
2022/05/01 09:41:42;;;;;;;15.88;9.93;;;;;;;14.75;54.28;102401.56;5021605;28;20180;-67
2022/05/01 09:44:18;;;;;;;13.25;9.65;;;;;;;15.46;51.89;102401.06;5023706;28;20062;-69
2022/05/01 09:46:46;;;;;;;13.80;9.75;;;;;;;15.33;53.22;102394.69;5027751;28;20840;-69
2022/05/01 09:49:14;;;;;;;16.67;9.50;;;;;;;15.97;51.19;102397.13;5018019;28;20052;-69
2022/05/01 09:51:50;;;;;;;15.43;10.38;;;;;;;14.93;52.16;102394.31;5017956;28;20037;-66
2022/05/01 09:54:21;;;;;;;15.98;9.82;;;;;;;15.55;51.50;102397.84;5025282;28;20068;-67
2022/05/01 09:56:49;;;;;;;14.60;8.82;;;;;;;15.55;50.05;102393.31;5020162;28;20068;-68
2022/05/01 09:59:16;;;;;;;17.25;9.80;;;;;;;15.46;51.80;102387.63;5024334;28;20128;-68
2022/05/01 10:02:02;;;;;;;14.95;9.27;;;;;;;15.34;51.26;102391.91;5020322;28;20065;-67
2022/05/01 10:04:29;;;;;;;17.05;10.40;;;;;;;14.50;55.67;102394.00;5009317;28;20448;-67
2022/05/01 10:06:56;;;;;;;15.45;10.02;;;;;;;15.10;54.51;102386.13;5021435;28;20871;-68
2022/05/01 10:09:30;;;;;;;14.52;9.55;;;;;;;14.86;53.69;102384.84;5010903;28;20052;-67
2022/05/01 10:12:03;;;;;;;16.75;9.73;;;;;;;15.15;50.77;102388.56;5018890;28;20045;-67
2022/05/01 10:14:29;;;;;;;12.80;8.73;;;;;;;15.71;45.04;102377.19;4999291;28;20060;-67
2022/05/01 10:16:55;;;;;;;13.57;7.63;;;;;;;16.13;46.96;102372.81;5015355;28;20045;-67
2022/05/01 10:19:25;;;;;;;11.85;7.40;;;;;;;15.75;47.25;102381.41;4998383;28;20076;-67
2022/05/01 10:21:52;;;;;;;11.00;7.70;;;;;;;15.75;45.09;102383.22;5018291;28;20057;-66
2022/05/01 10:24:19;;;;;;;11.32;7.72;;;;;;;17.02;45.38;102377.94;5018301;28;20151;-65
2022/05/01 10:26:55;;;;;;;16.13;8.80;;;;;;;16.67;41.82;102377.50;5018995;28;20446;-66
2022/05/01 10:32:47;;;;;;;11.48;8.05;;;;;;;17.79;43.31;102368.22;5025038;28;20509;-66
2022/05/01 10:35:26;;;;;;;12.00;7.75;;;;;;;17.54;42.73;102361.78;5030370;28;20060;-66
2022/05/01 10:38:06;;;;;;;10.75;7.50;;;;;;;18.61;39.56;102358.75;5017641;28;20094;-66
2022/05/01 10:40:55;;;;;;;11.63;7.45;;;;;;;17.77;42.06;102359.34;5005413;28;20135;-68
2022/05/01 10:43:31;;;;;;;11.65;8.30;;;;;;;17.59;41.35;102353.38;5016104;28;20049;-66
2022/05/01 10:46:04;;;;;;;9.98;7.45;;;;;;;17.03;41.79;102356.25;5017817;28;20439;-68
2022/05/01 10:48:35;;;;;;;12.45;7.35;;;;;;;16.50;41.17;102352.50;4999959;28;20048;-68
2022/05/01 10:51:34;;;;;;;9.75;6.78;;;;;;;16.19;42.63;102353.59;5011204;28;20140;-67
2022/05/01 10:54:17;;;;;;;13.30;7.45;;;;;;;15.94;42.02;102356.06;5018671;28;20052;-67
2022/05/01 10:56:43;;;;;;;10.75;7.05;;;;;;;16.54;41.15;102348.66;5018800;28;20116;-68
2022/05/01 10:59:33;;;;;;;12.88;7.93;;;;;;;16.53;41.74;102351.44;5016873;28;20045;-68
2022/05/01 11:02:04;;;;;;;11.45;7.75;;;;;;;16.62;42.21;102355.34;4988987;28;20045;-68
2022/05/01 11:04:38;;;;;;;12.48;8.02;;;;;;;16.29;41.57;102343.09;5002497;28;20041;-68
2022/05/01 11:07:05;;;;;;;10.75;6.78;;;;;;;16.00;41.64;102344.94;5013262;28;20128;-68
2022/05/01 11:09:34;;;;;;;13.18;7.38;;;;;;;15.63;44.22;102344.50;5012748;28;20052;-68
2022/05/01 11:12:01;;;;;;;11.18;7.85;;;;;;;15.83;44.79;102345.13;4999494;28;20045;-67
2022/05/01 11:14:52;;;;;;;11.45;7.80;;;;;;;16.87;41.54;102335.78;5018153;28;20056;-67
2022/05/01 11:17:42;;;;;;;15.45;8.43;;;;;;;17.47;41.35;102333.53;5023200;28;20053;-68
2022/05/01 11:20:14;;;;;;;13.38;7.78;;;;;;;18.00;38.96;102322.66;5006640;28;20589;-68
2022/05/01 11:22:41;;;;;;;12.10;6.50;;;;;;;17.89;35.51;102319.88;5029181;28;20136;-68
2022/05/01 11:25:12;;;;;;;11.90;7.07;;;;;;;18.06;36.38;102325.78;5021216;28;20036;-67
2022/05/01 11:27:51;;;;;;;12.33;7.27;;;;;;;17.79;39.37;102323.22;5024029;28;20040;-68
2022/05/01 11:30:32;;;;;;;14.13;7.43;;;;;;;17.04;42.54;102328.31;5006431;28;20471;-68
2022/05/01 11:33:06;;;;;;;13.02;7.47;;;;;;;16.52;39.28;102329.03;5020429;28;20051;-68
2022/05/01 11:35:55;;;;;;;13.57;8.10;;;;;;;16.51;41.88;102318.34;5024566;28;20063;-67
2022/05/01 11:38:30;;;;;;;12.75;8.00;;;;;;;16.60;40.86;102317.75;5025159;28;20127;-67
2022/05/01 11:40:59;;;;;;;13.60;7.72;;;;;;;16.49;39.83;102321.16;5039670;22;20045;-68
2022/05/01 11:43:28;;;;;;;10.52;7.35;;;;;;;16.00;41.48;102313.50;4990492;28;20041;-67
2022/05/01 11:45:55;;;;;;;11.23;7.68;;;;;;;16.35;41.08;102307.72;4990844;28;20829;-66
2022/05/01 11:48:20;;;;;;;10.05;7.13;;;;;;;16.18;39.17;102300.72;4989171;28;20331;-66